sensor_id;sensor_type;location;lat;lon;timestamp;P1;durP1;ratioP1;P2;durP2;ratioP2
53389;SDS011;39288;42.970;1.524;2024-02-21T00:00:21;8.23;;;4.07;;
53389;SDS011;39288;42.970;1.524;2024-02-21T00:01:22;11.23;;;4.57;;
53389;SDS011;39288;42.970;1.524;2024-02-21T00:02:22;11.10;;;4.37;;
53389;SDS011;39288;42.970;1.524;2024-02-21T00:03:23;10.53;;;4.10;;
53389;SDS011;39288;42.970;1.524;2024-02-21T00:04:23;7.07;;;2.77;;
53389;SDS011;39288;42.970;1.524;2024-02-21T00:05:24;6.47;;;2.87;;
53389;SDS011;39288;42.970;1.524;2024-02-21T00:06:24;11.63;;;2.83;;
53389;SDS011;39288;42.970;1.524;2024-02-21T00:07:26;8.18;;;2.60;;
53389;SDS011;39288;42.970;1.524;2024-02-21T00:08:26;6.97;;;2.40;;
53389;SDS011;39288;42.970;1.524;2024-02-21T00:09:27;7.93;;;2.83;;
53389;SDS011;39288;42.970;1.524;2024-02-21T00:10:27;3.40;;;2.07;;
53389;SDS011;39288;42.970;1.524;2024-02-21T00:11:28;7.80;;;2.30;;
53389;SDS011;39288;42.970;1.524;2024-02-21T00:12:29;12.07;;;2.77;;
53389;SDS011;39288;42.970;1.524;2024-02-21T00:13:29;6.93;;;2.57;;
53389;SDS011;39288;42.970;1.524;2024-02-21T00:14:30;8.37;;;2.13;;
53389;SDS011;39288;42.970;1.524;2024-02-21T00:15:30;6.73;;;2.13;;
53389;SDS011;39288;42.970;1.524;2024-02-21T00:16:31;5.60;;;3.40;;
53389;SDS011;39288;42.970;1.524;2024-02-21T00:17:31;8.90;;;3.30;;
53389;SDS011;39288;42.970;1.524;2024-02-21T00:18:32;5.60;;;2.58;;
53389;SDS011;39288;42.970;1.524;2024-02-21T00:19:32;10.83;;;3.27;;
53389;SDS011;39288;42.970;1.524;2024-02-21T00:20:33;5.80;;;2.50;;
53389;SDS011;39288;42.970;1.524;2024-02-21T00:21:33;3.47;;;1.80;;
53389;SDS011;39288;42.970;1.524;2024-02-21T00:22:34;6.30;;;2.03;;
53389;SDS011;39288;42.970;1.524;2024-02-21T00:23:34;4.73;;;2.23;;
53389;SDS011;39288;42.970;1.524;2024-02-21T00:24:35;9.83;;;2.57;;
53389;SDS011;39288;42.970;1.524;2024-02-21T00:25:35;5.03;;;1.93;;
53389;SDS011;39288;42.970;1.524;2024-02-21T00:26:35;5.23;;;2.10;;
53389;SDS011;39288;42.970;1.524;2024-02-21T00:27:36;6.27;;;1.80;;
53389;SDS011;39288;42.970;1.524;2024-02-21T00:28:36;4.50;;;1.83;;
53389;SDS011;39288;42.970;1.524;2024-02-21T00:29:37;6.83;;;2.47;;
53389;SDS011;39288;42.970;1.524;2024-02-21T00:30:37;4.67;;;2.17;;
53389;SDS011;39288;42.970;1.524;2024-02-21T00:31:38;5.07;;;1.90;;
53389;SDS011;39288;42.970;1.524;2024-02-21T00:32:38;7.50;;;3.43;;
53389;SDS011;39288;42.970;1.524;2024-02-21T00:33:38;9.57;;;3.80;;
53389;SDS011;39288;42.970;1.524;2024-02-21T00:34:39;7.60;;;4.00;;
53389;SDS011;39288;42.970;1.524;2024-02-21T00:35:39;11.07;;;3.73;;
53389;SDS011;39288;42.970;1.524;2024-02-21T00:36:40;7.47;;;4.20;;
53389;SDS011;39288;42.970;1.524;2024-02-21T00:37:40;9.27;;;4.80;;
53389;SDS011;39288;42.970;1.524;2024-02-21T00:38:41;6.87;;;4.27;;
53389;SDS011;39288;42.970;1.524;2024-02-21T00:39:41;8.40;;;3.80;;
53389;SDS011;39288;42.970;1.524;2024-02-21T00:40:42;6.57;;;2.45;;
53389;SDS011;39288;42.970;1.524;2024-02-21T00:41:42;5.17;;;2.50;;
53389;SDS011;39288;42.970;1.524;2024-02-21T00:42:43;8.50;;;2.73;;
53389;SDS011;39288;42.970;1.524;2024-02-21T00:43:43;8.63;;;2.77;;
53389;SDS011;39288;42.970;1.524;2024-02-21T00:44:44;7.93;;;3.23;;
53389;SDS011;39288;42.970;1.524;2024-02-21T00:45:44;11.10;;;3.63;;
53389;SDS011;39288;42.970;1.524;2024-02-21T00:46:45;8.50;;;3.57;;
53389;SDS011;39288;42.970;1.524;2024-02-21T00:47:46;6.03;;;3.00;;
53389;SDS011;39288;42.970;1.524;2024-02-21T00:48:46;7.30;;;3.07;;
53389;SDS011;39288;42.970;1.524;2024-02-21T00:49:47;6.73;;;2.40;;
53389;SDS011;39288;42.970;1.524;2024-02-21T00:50:47;8.37;;;3.33;;
53389;SDS011;39288;42.970;1.524;2024-02-21T00:51:48;7.87;;;2.43;;
53389;SDS011;39288;42.970;1.524;2024-02-21T00:52:48;6.60;;;2.70;;
53389;SDS011;39288;42.970;1.524;2024-02-21T00:53:48;5.20;;;2.70;;
53389;SDS011;39288;42.970;1.524;2024-02-21T00:54:49;4.73;;;2.50;;
53389;SDS011;39288;42.970;1.524;2024-02-21T00:55:49;7.13;;;2.70;;
53389;SDS011;39288;42.970;1.524;2024-02-21T00:56:50;5.50;;;2.47;;
53389;SDS011;39288;42.970;1.524;2024-02-21T00:57:50;7.40;;;2.83;;
53389;SDS011;39288;42.970;1.524;2024-02-21T00:58:51;6.37;;;2.40;;
53389;SDS011;39288;42.970;1.524;2024-02-21T00:59:51;5.77;;;2.87;;
53389;SDS011;39288;42.970;1.524;2024-02-21T01:00:51;4.50;;;2.27;;
53389;SDS011;39288;42.970;1.524;2024-02-21T01:01:52;4.97;;;2.23;;
53389;SDS011;39288;42.970;1.524;2024-02-21T01:02:52;4.80;;;2.17;;
53389;SDS011;39288;42.970;1.524;2024-02-21T01:03:52;5.50;;;3.00;;
53389;SDS011;39288;42.970;1.524;2024-02-21T01:04:53;3.70;;;1.80;;
53389;SDS011;39288;42.970;1.524;2024-02-21T01:05:53;8.33;;;2.70;;
53389;SDS011;39288;42.970;1.524;2024-02-21T01:06:54;12.37;;;3.90;;
53389;SDS011;39288;42.970;1.524;2024-02-21T01:07:54;8.53;;;3.70;;
53389;SDS011;39288;42.970;1.524;2024-02-21T01:08:55;6.90;;;3.97;;
53389;SDS011;39288;42.970;1.524;2024-02-21T01:09:55;6.23;;;3.93;;
53389;SDS011;39288;42.970;1.524;2024-02-21T01:10:56;10.20;;;5.40;;
53389;SDS011;39288;42.970;1.524;2024-02-21T01:11:56;14.53;;;10.47;;
53389;SDS011;39288;42.970;1.524;2024-02-21T01:12:56;14.13;;;9.80;;
53389;SDS011;39288;42.970;1.524;2024-02-21T01:13:57;9.10;;;5.30;;
53389;SDS011;39288;42.970;1.524;2024-02-21T01:14:57;7.03;;;4.50;;
53389;SDS011;39288;42.970;1.524;2024-02-21T01:15:58;7.50;;;4.60;;
53389;SDS011;39288;42.970;1.524;2024-02-21T01:16:58;11.07;;;5.80;;
53389;SDS011;39288;42.970;1.524;2024-02-21T01:17:59;10.70;;;4.07;;
53389;SDS011;39288;42.970;1.524;2024-02-21T01:18:59;5.27;;;2.60;;
53389;SDS011;39288;42.970;1.524;2024-02-21T01:19:59;5.77;;;2.60;;
53389;SDS011;39288;42.970;1.524;2024-02-21T01:21:00;8.07;;;3.17;;
53389;SDS011;39288;42.970;1.524;2024-02-21T01:22:00;7.93;;;3.17;;
53389;SDS011;39288;42.970;1.524;2024-02-21T01:23:01;4.10;;;2.43;;
53389;SDS011;39288;42.970;1.524;2024-02-21T01:24:01;7.27;;;3.17;;
53389;SDS011;39288;42.970;1.524;2024-02-21T01:25:02;7.60;;;2.67;;
53389;SDS011;39288;42.970;1.524;2024-02-21T01:26:03;9.87;;;3.00;;
53389;SDS011;39288;42.970;1.524;2024-02-21T01:27:04;7.78;;;3.40;;
53389;SDS011;39288;42.970;1.524;2024-02-21T01:28:04;5.70;;;2.53;;
53389;SDS011;39288;42.970;1.524;2024-02-21T01:29:05;4.97;;;2.50;;
53389;SDS011;39288;42.970;1.524;2024-02-21T01:30:05;5.50;;;2.67;;
53389;SDS011;39288;42.970;1.524;2024-02-21T01:31:07;9.98;;;2.83;;
53389;SDS011;39288;42.970;1.524;2024-02-21T01:32:07;4.47;;;2.13;;
53389;SDS011;39288;42.970;1.524;2024-02-21T01:33:08;8.43;;;2.43;;
53389;SDS011;39288;42.970;1.524;2024-02-21T01:34:08;5.87;;;2.60;;
53389;SDS011;39288;42.970;1.524;2024-02-21T01:35:08;6.20;;;2.60;;
53389;SDS011;39288;42.970;1.524;2024-02-21T01:36:09;7.30;;;2.30;;
53389;SDS011;39288;42.970;1.524;2024-02-21T01:37:09;3.77;;;2.20;;
53389;SDS011;39288;42.970;1.524;2024-02-21T01:38:10;6.80;;;2.40;;
53389;SDS011;39288;42.970;1.524;2024-02-21T01:39:12;7.05;;;3.20;;
53389;SDS011;39288;42.970;1.524;2024-02-21T01:40:13;6.50;;;2.60;;
53389;SDS011;39288;42.970;1.524;2024-02-21T01:41:14;5.82;;;2.40;;
53389;SDS011;39288;42.970;1.524;2024-02-21T01:43:17;9.82;;;3.05;;
53389;SDS011;39288;42.970;1.524;2024-02-21T01:44:20;10.68;;;2.83;;
53389;SDS011;39288;42.970;1.524;2024-02-21T01:45:20;5.23;;;2.70;;
53389;SDS011;39288;42.970;1.524;2024-02-21T01:46:21;6.67;;;3.10;;
53389;SDS011;39288;42.970;1.524;2024-02-21T01:47:21;5.13;;;2.57;;
53389;SDS011;39288;42.970;1.524;2024-02-21T01:48:22;4.37;;;1.90;;
53389;SDS011;39288;42.970;1.524;2024-02-21T01:49:23;9.65;;;3.28;;
53389;SDS011;39288;42.970;1.524;2024-02-21T01:50:24;7.95;;;2.88;;
53389;SDS011;39288;42.970;1.524;2024-02-21T01:51:24;6.67;;;2.77;;
53389;SDS011;39288;42.970;1.524;2024-02-21T01:52:25;6.13;;;2.40;;
53389;SDS011;39288;42.970;1.524;2024-02-21T01:53:29;3.37;;;2.07;;
53389;SDS011;39288;42.970;1.524;2024-02-21T01:54:33;4.97;;;1.90;;
53389;SDS011;39288;42.970;1.524;2024-02-21T01:55:34;3.43;;;1.77;;
53389;SDS011;39288;42.970;1.524;2024-02-21T01:56:35;6.27;;;2.07;;
53389;SDS011;39288;42.970;1.524;2024-02-21T01:57:35;9.17;;;2.63;;
53389;SDS011;39288;42.970;1.524;2024-02-21T01:58:37;5.80;;;2.15;;
53389;SDS011;39288;42.970;1.524;2024-02-21T01:59:39;5.78;;;2.30;;
53389;SDS011;39288;42.970;1.524;2024-02-21T02:00:40;6.37;;;2.67;;
53389;SDS011;39288;42.970;1.524;2024-02-21T02:01:42;4.93;;;2.55;;
53389;SDS011;39288;42.970;1.524;2024-02-21T02:02:44;8.50;;;2.30;;
53389;SDS011;39288;42.970;1.524;2024-02-21T02:03:45;4.82;;;1.90;;
53389;SDS011;39288;42.970;1.524;2024-02-21T02:04:47;7.53;;;2.15;;
53389;SDS011;39288;42.970;1.524;2024-02-21T02:05:48;3.77;;;1.43;;
53389;SDS011;39288;42.970;1.524;2024-02-21T02:06:50;4.68;;;1.80;;
53389;SDS011;39288;42.970;1.524;2024-02-21T02:07:51;5.13;;;2.05;;
53389;SDS011;39288;42.970;1.524;2024-02-21T02:08:51;4.60;;;1.70;;
53389;SDS011;39288;42.970;1.524;2024-02-21T02:09:52;3.40;;;1.73;;
53389;SDS011;39288;42.970;1.524;2024-02-21T02:10:53;4.37;;;1.53;;
53389;SDS011;39288;42.970;1.524;2024-02-21T02:11:54;4.60;;;2.10;;
53389;SDS011;39288;42.970;1.524;2024-02-21T02:12:54;7.33;;;2.73;;
53389;SDS011;39288;42.970;1.524;2024-02-21T02:13:55;3.47;;;2.07;;
53389;SDS011;39288;42.970;1.524;2024-02-21T02:14:59;5.07;;;2.00;;
53389;SDS011;39288;42.970;1.524;2024-02-21T02:16:00;4.40;;;2.00;;
53389;SDS011;39288;42.970;1.524;2024-02-21T02:17:00;3.10;;;1.77;;
53389;SDS011;39288;42.970;1.524;2024-02-21T02:18:01;3.03;;;1.50;;
53389;SDS011;39288;42.970;1.524;2024-02-21T02:19:01;1.90;;;1.53;;
53389;SDS011;39288;42.970;1.524;2024-02-21T02:20:03;6.18;;;1.95;;
53389;SDS011;39288;42.970;1.524;2024-02-21T02:22:09;4.10;;;1.38;;
53389;SDS011;39288;42.970;1.524;2024-02-21T02:23:24;4.47;;;1.75;;
53389;SDS011;39288;42.970;1.524;2024-02-21T02:24:26;4.55;;;1.77;;
53389;SDS011;39288;42.970;1.524;2024-02-21T02:25:26;5.33;;;1.60;;
53389;SDS011;39288;42.970;1.524;2024-02-21T02:26:27;5.27;;;2.60;;
53389;SDS011;39288;42.970;1.524;2024-02-21T02:27:27;3.57;;;1.57;;
53389;SDS011;39288;42.970;1.524;2024-02-21T02:28:28;5.10;;;1.50;;
53389;SDS011;39288;42.970;1.524;2024-02-21T02:29:28;2.57;;;1.50;;
53389;SDS011;39288;42.970;1.524;2024-02-21T02:30:32;3.50;;;1.85;;
53389;SDS011;39288;42.970;1.524;2024-02-21T02:31:34;4.32;;;1.50;;
53389;SDS011;39288;42.970;1.524;2024-02-21T02:32:35;3.40;;;1.77;;
53389;SDS011;39288;42.970;1.524;2024-02-21T02:33:36;4.13;;;2.10;;
53389;SDS011;39288;42.970;1.524;2024-02-21T02:34:36;4.50;;;2.07;;
53389;SDS011;39288;42.970;1.524;2024-02-21T02:35:36;3.60;;;1.80;;
53389;SDS011;39288;42.970;1.524;2024-02-21T02:36:37;6.57;;;2.17;;
53389;SDS011;39288;42.970;1.524;2024-02-21T02:37:37;6.00;;;1.97;;
53389;SDS011;39288;42.970;1.524;2024-02-21T02:38:41;6.95;;;2.45;;
53389;SDS011;39288;42.970;1.524;2024-02-21T02:39:41;3.77;;;1.90;;
53389;SDS011;39288;42.970;1.524;2024-02-21T02:40:42;9.57;;;1.80;;
53389;SDS011;39288;42.970;1.524;2024-02-21T02:41:42;8.33;;;2.30;;
53389;SDS011;39288;42.970;1.524;2024-02-21T02:42:43;3.80;;;1.90;;
53389;SDS011;39288;42.970;1.524;2024-02-21T02:43:43;4.30;;;1.87;;
53389;SDS011;39288;42.970;1.524;2024-02-21T02:44:44;4.13;;;2.07;;
53389;SDS011;39288;42.970;1.524;2024-02-21T02:45:44;6.40;;;1.70;;
53389;SDS011;39288;42.970;1.524;2024-02-21T02:46:44;3.93;;;1.70;;
53389;SDS011;39288;42.970;1.524;2024-02-21T02:47:45;3.23;;;1.50;;
53389;SDS011;39288;42.970;1.524;2024-02-21T02:48:48;2.58;;;1.45;;
53389;SDS011;39288;42.970;1.524;2024-02-21T02:49:49;4.77;;;1.60;;
53389;SDS011;39288;42.970;1.524;2024-02-21T02:51:51;7.45;;;2.28;;
53389;SDS011;39288;42.970;1.524;2024-02-21T02:52:51;3.13;;;1.30;;
53389;SDS011;39288;42.970;1.524;2024-02-21T02:53:53;5.25;;;1.55;;
53389;SDS011;39288;42.970;1.524;2024-02-21T02:54:53;2.70;;;1.53;;
53389;SDS011;39288;42.970;1.524;2024-02-21T02:55:55;4.07;;;1.42;;
53389;SDS011;39288;42.970;1.524;2024-02-21T02:56:56;6.13;;;1.60;;
53389;SDS011;39288;42.970;1.524;2024-02-21T02:57:56;7.77;;;1.50;;
53389;SDS011;39288;42.970;1.524;2024-02-21T02:58:57;5.67;;;1.60;;
53389;SDS011;39288;42.970;1.524;2024-02-21T02:59:57;6.33;;;1.50;;
53389;SDS011;39288;42.970;1.524;2024-02-21T03:00:58;3.63;;;1.40;;
53389;SDS011;39288;42.970;1.524;2024-02-21T03:01:58;5.13;;;2.00;;
53389;SDS011;39288;42.970;1.524;2024-02-21T03:02:59;6.93;;;1.50;;
53389;SDS011;39288;42.970;1.524;2024-02-21T03:03:59;3.63;;;1.47;;
53389;SDS011;39288;42.970;1.524;2024-02-21T03:05:00;3.20;;;1.53;;
53389;SDS011;39288;42.970;1.524;2024-02-21T03:06:00;3.03;;;1.57;;
53389;SDS011;39288;42.970;1.524;2024-02-21T03:07:01;4.13;;;1.67;;
53389;SDS011;39288;42.970;1.524;2024-02-21T03:08:02;4.47;;;2.10;;
53389;SDS011;39288;42.970;1.524;2024-02-21T03:09:06;3.03;;;1.73;;
53389;SDS011;39288;42.970;1.524;2024-02-21T03:11:09;5.47;;;2.00;;
53389;SDS011;39288;42.970;1.524;2024-02-21T03:12:11;7.25;;;1.40;;
53389;SDS011;39288;42.970;1.524;2024-02-21T03:13:11;6.93;;;1.90;;
53389;SDS011;39288;42.970;1.524;2024-02-21T03:14:11;2.93;;;1.50;;
53389;SDS011;39288;42.970;1.524;2024-02-21T03:15:12;2.50;;;1.73;;
53389;SDS011;39288;42.970;1.524;2024-02-21T03:16:16;6.68;;;1.75;;
53389;SDS011;39288;42.970;1.524;2024-02-21T03:17:17;4.55;;;1.90;;
53389;SDS011;39288;42.970;1.524;2024-02-21T03:18:17;3.77;;;1.67;;
53389;SDS011;39288;42.970;1.524;2024-02-21T03:19:18;3.23;;;1.70;;
53389;SDS011;39288;42.970;1.524;2024-02-21T03:20:18;2.60;;;1.53;;
53389;SDS011;39288;42.970;1.524;2024-02-21T03:21:19;5.53;;;1.80;;
53389;SDS011;39288;42.970;1.524;2024-02-21T03:22:20;4.57;;;2.20;;
53389;SDS011;39288;42.970;1.524;2024-02-21T03:23:20;3.70;;;1.50;;
53389;SDS011;39288;42.970;1.524;2024-02-21T03:24:21;4.03;;;1.63;;
53389;SDS011;39288;42.970;1.524;2024-02-21T03:25:21;2.23;;;1.20;;
53389;SDS011;39288;42.970;1.524;2024-02-21T03:26:22;6.57;;;1.50;;
53389;SDS011;39288;42.970;1.524;2024-02-21T03:27:22;3.97;;;1.60;;
53389;SDS011;39288;42.970;1.524;2024-02-21T03:28:23;5.50;;;1.70;;
53389;SDS011;39288;42.970;1.524;2024-02-21T03:29:23;7.07;;;2.00;;
53389;SDS011;39288;42.970;1.524;2024-02-21T03:30:23;3.40;;;1.87;;
53389;SDS011;39288;42.970;1.524;2024-02-21T03:31:24;3.70;;;2.07;;
53389;SDS011;39288;42.970;1.524;2024-02-21T03:32:24;4.17;;;1.90;;
53389;SDS011;39288;42.970;1.524;2024-02-21T03:33:25;5.30;;;2.20;;
53389;SDS011;39288;42.970;1.524;2024-02-21T03:34:25;4.67;;;1.63;;
53389;SDS011;39288;42.970;1.524;2024-02-21T03:35:26;5.03;;;1.87;;
53389;SDS011;39288;42.970;1.524;2024-02-21T03:36:27;4.40;;;1.50;;
53389;SDS011;39288;42.970;1.524;2024-02-21T03:37:27;5.47;;;1.80;;
53389;SDS011;39288;42.970;1.524;2024-02-21T03:38:28;2.07;;;1.20;;
53389;SDS011;39288;42.970;1.524;2024-02-21T03:39:31;3.25;;;1.70;;
53389;SDS011;39288;42.970;1.524;2024-02-21T03:40:32;5.30;;;1.60;;
53389;SDS011;39288;42.970;1.524;2024-02-21T03:41:33;2.87;;;1.53;;
53389;SDS011;39288;42.970;1.524;2024-02-21T03:42:33;6.17;;;2.00;;
53389;SDS011;39288;42.970;1.524;2024-02-21T03:43:33;2.60;;;1.20;;
53389;SDS011;39288;42.970;1.524;2024-02-21T03:44:34;5.30;;;1.30;;
53389;SDS011;39288;42.970;1.524;2024-02-21T03:45:34;2.50;;;1.47;;
53389;SDS011;39288;42.970;1.524;2024-02-21T03:46:35;5.87;;;1.80;;
53389;SDS011;39288;42.970;1.524;2024-02-21T03:47:35;5.73;;;1.53;;
53389;SDS011;39288;42.970;1.524;2024-02-21T03:48:36;11.67;;;2.67;;
53389;SDS011;39288;42.970;1.524;2024-02-21T03:49:37;3.57;;;1.50;;
53389;SDS011;39288;42.970;1.524;2024-02-21T03:50:37;2.65;;;1.42;;
53389;SDS011;39288;42.970;1.524;2024-02-21T03:51:38;2.70;;;1.80;;
53389;SDS011;39288;42.970;1.524;2024-02-21T03:52:38;3.23;;;1.63;;
53389;SDS011;39288;42.970;1.524;2024-02-21T03:53:39;3.37;;;1.37;;
53389;SDS011;39288;42.970;1.524;2024-02-21T03:54:39;5.50;;;2.20;;
53389;SDS011;39288;42.970;1.524;2024-02-21T03:55:39;4.97;;;2.00;;
53389;SDS011;39288;42.970;1.524;2024-02-21T03:56:40;7.03;;;2.23;;
53389;SDS011;39288;42.970;1.524;2024-02-21T03:57:41;4.90;;;2.17;;
53389;SDS011;39288;42.970;1.524;2024-02-21T03:58:41;4.00;;;1.87;;
53389;SDS011;39288;42.970;1.524;2024-02-21T03:59:41;3.83;;;2.10;;
53389;SDS011;39288;42.970;1.524;2024-02-21T04:00:42;4.97;;;2.10;;
53389;SDS011;39288;42.970;1.524;2024-02-21T04:01:42;3.23;;;1.60;;
53389;SDS011;39288;42.970;1.524;2024-02-21T04:02:43;4.30;;;1.60;;
53389;SDS011;39288;42.970;1.524;2024-02-21T04:03:44;4.10;;;1.63;;
53389;SDS011;39288;42.970;1.524;2024-02-21T04:04:44;3.13;;;1.43;;
53389;SDS011;39288;42.970;1.524;2024-02-21T04:05:48;5.50;;;1.50;;
53389;SDS011;39288;42.970;1.524;2024-02-21T04:06:48;3.03;;;1.43;;
53389;SDS011;39288;42.970;1.524;2024-02-21T04:07:49;2.00;;;1.33;;
53389;SDS011;39288;42.970;1.524;2024-02-21T04:08:51;2.40;;;1.45;;
53389;SDS011;39288;42.970;1.524;2024-02-21T04:09:51;2.50;;;1.43;;
53389;SDS011;39288;42.970;1.524;2024-02-21T04:10:52;3.17;;;1.63;;
53389;SDS011;39288;42.970;1.524;2024-02-21T04:11:52;3.07;;;1.53;;
53389;SDS011;39288;42.970;1.524;2024-02-21T04:12:52;3.40;;;1.30;;
53389;SDS011;39288;42.970;1.524;2024-02-21T04:13:53;3.93;;;1.60;;
53389;SDS011;39288;42.970;1.524;2024-02-21T04:14:53;5.33;;;1.40;;
53389;SDS011;39288;42.970;1.524;2024-02-21T04:15:54;1.70;;;1.00;;
53389;SDS011;39288;42.970;1.524;2024-02-21T04:16:54;6.50;;;2.07;;
53389;SDS011;39288;42.970;1.524;2024-02-21T04:17:54;2.70;;;1.00;;
53389;SDS011;39288;42.970;1.524;2024-02-21T04:18:55;1.37;;;1.13;;
53389;SDS011;39288;42.970;1.524;2024-02-21T04:20:01;3.43;;;1.50;;
53389;SDS011;39288;42.970;1.524;2024-02-21T04:21:05;4.63;;;1.48;;
53389;SDS011;39288;42.970;1.524;2024-02-21T04:22:05;3.93;;;1.43;;
53389;SDS011;39288;42.970;1.524;2024-02-21T04:23:06;6.17;;;1.40;;
53389;SDS011;39288;42.970;1.524;2024-02-21T04:24:06;4.17;;;1.13;;
53389;SDS011;39288;42.970;1.524;2024-02-21T04:25:07;2.17;;;1.03;;
53389;SDS011;39288;42.970;1.524;2024-02-21T04:26:07;3.13;;;1.03;;
53389;SDS011;39288;42.970;1.524;2024-02-21T04:27:08;2.80;;;1.20;;
53389;SDS011;39288;42.970;1.524;2024-02-21T04:28:08;3.07;;;1.13;;
53389;SDS011;39288;42.970;1.524;2024-02-21T04:29:09;2.33;;;1.20;;
53389;SDS011;39288;42.970;1.524;2024-02-21T04:30:10;2.72;;;1.15;;
53389;SDS011;39288;42.970;1.524;2024-02-21T04:31:10;5.20;;;1.37;;
53389;SDS011;39288;42.970;1.524;2024-02-21T04:32:11;3.63;;;1.20;;
53389;SDS011;39288;42.970;1.524;2024-02-21T04:33:11;3.43;;;2.03;;
53389;SDS011;39288;42.970;1.524;2024-02-21T04:34:12;4.13;;;1.20;;
53389;SDS011;39288;42.970;1.524;2024-02-21T04:35:12;1.57;;;1.00;;
53389;SDS011;39288;42.970;1.524;2024-02-21T04:36:12;4.53;;;1.57;;
53389;SDS011;39288;42.970;1.524;2024-02-21T04:37:13;3.57;;;1.20;;
53389;SDS011;39288;42.970;1.524;2024-02-21T04:38:13;3.53;;;1.13;;
53389;SDS011;39288;42.970;1.524;2024-02-21T04:39:14;2.47;;;1.20;;
53389;SDS011;39288;42.970;1.524;2024-02-21T04:40:15;6.87;;;1.23;;
53389;SDS011;39288;42.970;1.524;2024-02-21T04:41:16;2.60;;;1.08;;
53389;SDS011;39288;42.970;1.524;2024-02-21T04:42:17;3.37;;;1.07;;
53389;SDS011;39288;42.970;1.524;2024-02-21T04:43:17;2.80;;;1.30;;
53389;SDS011;39288;42.970;1.524;2024-02-21T04:44:18;3.50;;;1.20;;
53389;SDS011;39288;42.970;1.524;2024-02-21T04:45:21;1.42;;;1.00;;
53389;SDS011;39288;42.970;1.524;2024-02-21T04:46:22;3.23;;;1.07;;
53389;SDS011;39288;42.970;1.524;2024-02-21T04:47:22;4.43;;;1.00;;
53389;SDS011;39288;42.970;1.524;2024-02-21T04:48:25;2.05;;;1.00;;
53389;SDS011;39288;42.970;1.524;2024-02-21T04:49:26;3.60;;;1.20;;
53389;SDS011;39288;42.970;1.524;2024-02-21T04:50:26;3.00;;;1.10;;
53389;SDS011;39288;42.970;1.524;2024-02-21T04:51:27;2.83;;;0.90;;
53389;SDS011;39288;42.970;1.524;2024-02-21T04:52:27;1.80;;;0.90;;
53389;SDS011;39288;42.970;1.524;2024-02-21T04:53:28;2.63;;;1.07;;
53389;SDS011;39288;42.970;1.524;2024-02-21T04:54:28;2.60;;;1.40;;
53389;SDS011;39288;42.970;1.524;2024-02-21T04:55:29;2.57;;;1.00;;
53389;SDS011;39288;42.970;1.524;2024-02-21T04:56:29;2.73;;;1.00;;
53389;SDS011;39288;42.970;1.524;2024-02-21T04:57:29;1.80;;;1.00;;
53389;SDS011;39288;42.970;1.524;2024-02-21T04:58:30;2.17;;;1.20;;
53389;SDS011;39288;42.970;1.524;2024-02-21T04:59:30;1.60;;;1.10;;
53389;SDS011;39288;42.970;1.524;2024-02-21T05:00:30;2.80;;;0.90;;
53389;SDS011;39288;42.970;1.524;2024-02-21T05:01:31;3.10;;;1.00;;
53389;SDS011;39288;42.970;1.524;2024-02-21T05:02:31;1.30;;;0.90;;
53389;SDS011;39288;42.970;1.524;2024-02-21T05:03:32;4.00;;;0.83;;
53389;SDS011;39288;42.970;1.524;2024-02-21T05:04:32;3.63;;;1.00;;
53389;SDS011;39288;42.970;1.524;2024-02-21T05:05:33;5.10;;;0.90;;
53389;SDS011;39288;42.970;1.524;2024-02-21T05:06:39;0.80;;;0.70;;
53389;SDS011;39288;42.970;1.524;2024-02-21T05:07:41;3.25;;;0.90;;
53389;SDS011;39288;42.970;1.524;2024-02-21T05:08:41;5.10;;;1.10;;
53389;SDS011;39288;42.970;1.524;2024-02-21T05:09:42;1.30;;;0.93;;
53389;SDS011;39288;42.970;1.524;2024-02-21T05:10:43;6.70;;;1.30;;
53389;SDS011;39288;42.970;1.524;2024-02-21T05:11:43;2.03;;;1.00;;
53389;SDS011;39288;42.970;1.524;2024-02-21T05:12:44;1.33;;;0.77;;
53389;SDS011;39288;42.970;1.524;2024-02-21T05:13:44;2.37;;;0.67;;
53389;SDS011;39288;42.970;1.524;2024-02-21T05:14:45;3.57;;;2.13;;
53389;SDS011;39288;42.970;1.524;2024-02-21T05:15:45;11.73;;;4.67;;
53389;SDS011;39288;42.970;1.524;2024-02-21T05:16:46;6.30;;;3.43;;
53389;SDS011;39288;42.970;1.524;2024-02-21T05:17:46;8.30;;;4.30;;
53389;SDS011;39288;42.970;1.524;2024-02-21T05:18:47;6.57;;;4.13;;
53389;SDS011;39288;42.970;1.524;2024-02-21T05:19:47;9.63;;;4.17;;
53389;SDS011;39288;42.970;1.524;2024-02-21T05:20:48;6.17;;;3.50;;
53389;SDS011;39288;42.970;1.524;2024-02-21T05:21:48;6.67;;;2.87;;
53389;SDS011;39288;42.970;1.524;2024-02-21T05:22:48;4.23;;;2.50;;
53389;SDS011;39288;42.970;1.524;2024-02-21T05:23:49;6.63;;;2.30;;
53389;SDS011;39288;42.970;1.524;2024-02-21T05:24:50;3.88;;;1.50;;
53389;SDS011;39288;42.970;1.524;2024-02-21T05:25:50;3.30;;;1.27;;
53389;SDS011;39288;42.970;1.524;2024-02-21T05:26:51;3.27;;;1.60;;
53389;SDS011;39288;42.970;1.524;2024-02-21T05:27:51;4.40;;;1.60;;
53389;SDS011;39288;42.970;1.524;2024-02-21T05:28:55;1.40;;;1.00;;
53389;SDS011;39288;42.970;1.524;2024-02-21T05:29:56;3.63;;;0.80;;
53389;SDS011;39288;42.970;1.524;2024-02-21T05:30:56;2.00;;;0.90;;
53389;SDS011;39288;42.970;1.524;2024-02-21T05:31:57;1.53;;;0.80;;
53389;SDS011;39288;42.970;1.524;2024-02-21T05:32:58;2.30;;;1.03;;
53389;SDS011;39288;42.970;1.524;2024-02-21T05:33:58;1.27;;;1.03;;
53389;SDS011;39288;42.970;1.524;2024-02-21T05:34:59;2.57;;;1.00;;
53389;SDS011;39288;42.970;1.524;2024-02-21T05:35:59;0.80;;;0.70;;
53389;SDS011;39288;42.970;1.524;2024-02-21T05:36:59;1.50;;;0.80;;
53389;SDS011;39288;42.970;1.524;2024-02-21T05:38:00;2.78;;;0.90;;
53389;SDS011;39288;42.970;1.524;2024-02-21T05:39:01;2.20;;;0.80;;
53389;SDS011;39288;42.970;1.524;2024-02-21T05:40:02;2.97;;;1.10;;
53389;SDS011;39288;42.970;1.524;2024-02-21T05:41:02;1.73;;;0.80;;
53389;SDS011;39288;42.970;1.524;2024-02-21T05:42:03;1.50;;;0.75;;
53389;SDS011;39288;42.970;1.524;2024-02-21T05:43:04;1.03;;;0.77;;
53389;SDS011;39288;42.970;1.524;2024-02-21T05:44:04;1.60;;;0.77;;
53389;SDS011;39288;42.970;1.524;2024-02-21T05:45:05;3.23;;;0.90;;
53389;SDS011;39288;42.970;1.524;2024-02-21T05:46:05;1.00;;;0.70;;
53389;SDS011;39288;42.970;1.524;2024-02-21T05:47:06;3.23;;;0.80;;
53389;SDS011;39288;42.970;1.524;2024-02-21T05:48:10;2.40;;;0.70;;
53389;SDS011;39288;42.970;1.524;2024-02-21T05:49:10;2.67;;;1.03;;
53389;SDS011;39288;42.970;1.524;2024-02-21T05:50:10;2.57;;;0.80;;
53389;SDS011;39288;42.970;1.524;2024-02-21T05:51:11;6.73;;;1.07;;
53389;SDS011;39288;42.970;1.524;2024-02-21T05:52:11;1.70;;;0.70;;
53389;SDS011;39288;42.970;1.524;2024-02-21T05:53:12;0.70;;;0.50;;
53389;SDS011;39288;42.970;1.524;2024-02-21T05:54:12;3.37;;;0.87;;
53389;SDS011;39288;42.970;1.524;2024-02-21T05:55:13;3.50;;;1.07;;
53389;SDS011;39288;42.970;1.524;2024-02-21T05:56:14;2.25;;;0.90;;
53389;SDS011;39288;42.970;1.524;2024-02-21T05:57:15;2.17;;;1.03;;
53389;SDS011;39288;42.970;1.524;2024-02-21T05:58:17;2.13;;;1.23;;
53389;SDS011;39288;42.970;1.524;2024-02-21T05:59:17;1.63;;;1.03;;
53389;SDS011;39288;42.970;1.524;2024-02-21T06:00:18;1.53;;;0.90;;
53389;SDS011;39288;42.970;1.524;2024-02-21T06:01:18;2.60;;;1.07;;
53389;SDS011;39288;42.970;1.524;2024-02-21T06:02:19;1.60;;;0.80;;
53389;SDS011;39288;42.970;1.524;2024-02-21T06:03:20;2.00;;;0.90;;
53389;SDS011;39288;42.970;1.524;2024-02-21T06:04:20;5.00;;;1.00;;
53389;SDS011;39288;42.970;1.524;2024-02-21T06:05:20;2.33;;;0.90;;
53389;SDS011;39288;42.970;1.524;2024-02-21T06:06:21;1.30;;;0.80;;
53389;SDS011;39288;42.970;1.524;2024-02-21T06:07:22;2.53;;;0.90;;
53389;SDS011;39288;42.970;1.524;2024-02-21T06:08:22;1.03;;;0.63;;
53389;SDS011;39288;42.970;1.524;2024-02-21T06:09:22;1.13;;;0.70;;
53389;SDS011;39288;42.970;1.524;2024-02-21T06:10:23;1.30;;;0.70;;